sensor_id;sensor_type;location;lat;lon;timestamp;temperature;humidity
54930;DHT22;40833;53.238;6.576;2023-07-13T00:02:24;17.10;99.90
54930;DHT22;40833;53.238;6.576;2023-07-13T00:07:16;17.00;99.90
54930;DHT22;40833;53.238;6.576;2023-07-13T00:09:46;16.70;99.90
54930;DHT22;40833;53.238;6.576;2023-07-13T00:12:24;17.00;99.90
54930;DHT22;40833;53.238;6.576;2023-07-13T00:17:17;17.00;99.90
54930;DHT22;40833;53.238;6.576;2023-07-13T00:19:42;17.00;99.90
54930;DHT22;40833;53.238;6.576;2023-07-13T00:22:08;16.90;99.90
54930;DHT22;40833;53.238;6.576;2023-07-13T00:24:34;17.10;99.90
54930;DHT22;40833;53.238;6.576;2023-07-13T00:27:01;17.10;99.90
54930;DHT22;40833;53.238;6.576;2023-07-13T00:29:27;17.00;99.90
54930;DHT22;40833;53.238;6.576;2023-07-13T00:31:52;17.00;99.90
54930;DHT22;40833;53.238;6.576;2023-07-13T00:34:18;17.00;99.90
54930;DHT22;40833;53.238;6.576;2023-07-13T00:36:44;17.00;99.90
54930;DHT22;40833;53.238;6.576;2023-07-13T00:39:09;17.00;99.90
54930;DHT22;40833;53.238;6.576;2023-07-13T00:41:35;17.00;99.90
54930;DHT22;40833;53.238;6.576;2023-07-13T00:44:02;17.00;99.90
54930;DHT22;40833;53.238;6.576;2023-07-13T00:46:31;17.20;99.90
54930;DHT22;40833;53.238;6.576;2023-07-13T00:49:01;16.60;99.90
54930;DHT22;40833;53.238;6.576;2023-07-13T00:51:35;16.90;99.90
54930;DHT22;40833;53.238;6.576;2023-07-13T00:54:05;16.90;99.90
54930;DHT22;40833;53.238;6.576;2023-07-13T00:56:33;17.00;99.90
54930;DHT22;40833;53.238;6.576;2023-07-13T00:58:59;16.70;99.90
54930;DHT22;40833;53.238;6.576;2023-07-13T01:01:27;16.70;99.90
54930;DHT22;40833;53.238;6.576;2023-07-13T01:08:46;16.70;99.90
54930;DHT22;40833;53.238;6.576;2023-07-13T01:11:11;16.70;99.90
54930;DHT22;40833;53.238;6.576;2023-07-13T01:13:37;16.50;99.90
54930;DHT22;40833;53.238;6.576;2023-07-13T01:16:11;16.70;99.90
54930;DHT22;40833;53.238;6.576;2023-07-13T01:18:38;16.60;99.90
54930;DHT22;40833;53.238;6.576;2023-07-13T01:21:05;16.60;99.90
54930;DHT22;40833;53.238;6.576;2023-07-13T01:23:31;16.60;99.90
54930;DHT22;40833;53.238;6.576;2023-07-13T01:25:58;16.50;99.90
54930;DHT22;40833;53.238;6.576;2023-07-13T01:28:26;16.50;99.90
54930;DHT22;40833;53.238;6.576;2023-07-13T01:30:53;16.50;99.90
54930;DHT22;40833;53.238;6.576;2023-07-13T01:33:19;16.50;99.90
54930;DHT22;40833;53.238;6.576;2023-07-13T01:35:46;16.50;99.90
54930;DHT22;40833;53.238;6.576;2023-07-13T01:38:15;16.40;99.90
54930;DHT22;40833;53.238;6.576;2023-07-13T01:43:07;16.50;99.90
54930;DHT22;40833;53.238;6.576;2023-07-13T01:47:59;16.50;99.90
54930;DHT22;40833;53.238;6.576;2023-07-13T01:50:25;16.50;99.90
54930;DHT22;40833;53.238;6.576;2023-07-13T01:52:51;16.50;99.90
54930;DHT22;40833;53.238;6.576;2023-07-13T01:57:43;16.40;99.90
54930;DHT22;40833;53.238;6.576;2023-07-13T02:00:10;16.40;99.90
54930;DHT22;40833;53.238;6.576;2023-07-13T02:02:36;16.30;99.90
54930;DHT22;40833;53.238;6.576;2023-07-13T02:05:02;16.40;99.90
54930;DHT22;40833;53.238;6.576;2023-07-13T02:07:28;16.40;99.90
54930;DHT22;40833;53.238;6.576;2023-07-13T02:09:54;16.40;99.90
54930;DHT22;40833;53.238;6.576;2023-07-13T02:12:19;16.40;99.90
54930;DHT22;40833;53.238;6.576;2023-07-13T02:14:45;16.40;99.90
54930;DHT22;40833;53.238;6.576;2023-07-13T02:17:11;16.30;99.90
54930;DHT22;40833;53.238;6.576;2023-07-13T02:19:36;16.30;99.90
54930;DHT22;40833;53.238;6.576;2023-07-13T02:22:03;16.30;99.90
54930;DHT22;40833;53.238;6.576;2023-07-13T02:26:55;16.30;99.90
54930;DHT22;40833;53.238;6.576;2023-07-13T02:29:20;16.30;99.90
54930;DHT22;40833;53.238;6.576;2023-07-13T02:31:46;16.20;99.90
54930;DHT22;40833;53.238;6.576;2023-07-13T02:34:12;16.20;99.90
54930;DHT22;40833;53.238;6.576;2023-07-13T02:36:37;16.20;99.90
54930;DHT22;40833;53.238;6.576;2023-07-13T02:39:05;16.10;99.90
54930;DHT22;40833;53.238;6.576;2023-07-13T02:41:31;16.10;99.90
54930;DHT22;40833;53.238;6.576;2023-07-13T02:43:58;16.10;99.90
54930;DHT22;40833;53.238;6.576;2023-07-13T02:46:31;16.00;99.90
54930;DHT22;40833;53.238;6.576;2023-07-13T02:48:57;16.00;99.90
54930;DHT22;40833;53.238;6.576;2023-07-13T02:51:23;15.90;99.90
54930;DHT22;40833;53.238;6.576;2023-07-13T02:53:48;16.20;99.90
54930;DHT22;40833;53.238;6.576;2023-07-13T02:56:14;15.90;99.90
54930;DHT22;40833;53.238;6.576;2023-07-13T02:58:40;16.10;99.90
54930;DHT22;40833;53.238;6.576;2023-07-13T03:01:09;15.90;99.90
54930;DHT22;40833;53.238;6.576;2023-07-13T03:03:35;15.90;99.90
54930;DHT22;40833;53.238;6.576;2023-07-13T03:06:03;15.90;99.90
54930;DHT22;40833;53.238;6.576;2023-07-13T03:08:30;15.90;99.90
54930;DHT22;40833;53.238;6.576;2023-07-13T03:11:05;15.80;99.90
54930;DHT22;40833;53.238;6.576;2023-07-13T03:13:31;15.80;99.90
54930;DHT22;40833;53.238;6.576;2023-07-13T03:15:57;15.80;99.90
54930;DHT22;40833;53.238;6.576;2023-07-13T03:18:22;15.70;99.90
54930;DHT22;40833;53.238;6.576;2023-07-13T03:20:51;15.60;99.90
54930;DHT22;40833;53.238;6.576;2023-07-13T03:23:18;15.70;99.90
54930;DHT22;40833;53.238;6.576;2023-07-13T03:25:44;15.70;99.90
54930;DHT22;40833;53.238;6.576;2023-07-13T03:28:11;15.70;99.90
54930;DHT22;40833;53.238;6.576;2023-07-13T03:30:37;15.70;99.90
54930;DHT22;40833;53.238;6.576;2023-07-13T03:33:02;15.60;99.90
54930;DHT22;40833;53.238;6.576;2023-07-13T03:35:28;15.70;99.90
54930;DHT22;40833;53.238;6.576;2023-07-13T03:40:20;15.70;99.90
54930;DHT22;40833;53.238;6.576;2023-07-13T03:42:46;15.70;99.90
54930;DHT22;40833;53.238;6.576;2023-07-13T03:45:12;15.80;99.90
54930;DHT22;40833;53.238;6.576;2023-07-13T03:47:38;15.80;99.90
54930;DHT22;40833;53.238;6.576;2023-07-13T03:50:04;15.80;99.90
54930;DHT22;40833;53.238;6.576;2023-07-13T03:52:30;15.80;99.90
54930;DHT22;40833;53.238;6.576;2023-07-13T03:54:55;15.90;99.90
54930;DHT22;40833;53.238;6.576;2023-07-13T03:57:21;15.90;99.90
54930;DHT22;40833;53.238;6.576;2023-07-13T03:59:47;15.80;99.90
54930;DHT22;40833;53.238;6.576;2023-07-13T04:02:13;15.80;99.90
54930;DHT22;40833;53.238;6.576;2023-07-13T04:04:39;15.80;99.90
54930;DHT22;40833;53.238;6.576;2023-07-13T04:07:06;15.80;99.90
54930;DHT22;40833;53.238;6.576;2023-07-13T04:14:25;15.50;99.90
54930;DHT22;40833;53.238;6.576;2023-07-13T04:16:51;15.80;99.90
54930;DHT22;40833;53.238;6.576;2023-07-13T04:19:17;15.80;99.90
54930;DHT22;40833;53.238;6.576;2023-07-13T04:21:43;15.80;99.90
54930;DHT22;40833;53.238;6.576;2023-07-13T04:24:08;15.70;99.90
54930;DHT22;40833;53.238;6.576;2023-07-13T04:26:34;15.70;99.90
54930;DHT22;40833;53.238;6.576;2023-07-13T04:29:02;15.70;99.90
54930;DHT22;40833;53.238;6.576;2023-07-13T04:31:30;15.70;99.90
54930;DHT22;40833;53.238;6.576;2023-07-13T04:33:56;15.70;99.90
54930;DHT22;40833;53.238;6.576;2023-07-13T04:36:22;15.70;99.90
54930;DHT22;40833;53.238;6.576;2023-07-13T04:38:48;15.70;99.90
54930;DHT22;40833;53.238;6.576;2023-07-13T04:41:14;15.70;99.90
54930;DHT22;40833;53.238;6.576;2023-07-13T04:43:41;15.80;99.90
54930;DHT22;40833;53.238;6.576;2023-07-13T04:46:08;15.80;99.90
54930;DHT22;40833;53.238;6.576;2023-07-13T04:48:35;15.70;99.90
54930;DHT22;40833;53.238;6.576;2023-07-13T04:51:01;15.80;99.90
54930;DHT22;40833;53.238;6.576;2023-07-13T04:53:27;15.80;99.90
54930;DHT22;40833;53.238;6.576;2023-07-13T04:55:53;15.60;99.90
54930;DHT22;40833;53.238;6.576;2023-07-13T04:58:19;15.80;99.90
54930;DHT22;40833;53.238;6.576;2023-07-13T05:00:44;15.80;99.90
54930;DHT22;40833;53.238;6.576;2023-07-13T05:03:10;15.80;99.90
54930;DHT22;40833;53.238;6.576;2023-07-13T05:05:36;15.90;99.90
54930;DHT22;40833;53.238;6.576;2023-07-13T05:08:01;15.90;99.90
54930;DHT22;40833;53.238;6.576;2023-07-13T05:10:27;15.90;99.90
54930;DHT22;40833;53.238;6.576;2023-07-13T05:12:53;16.00;99.90
54930;DHT22;40833;53.238;6.576;2023-07-13T05:15:21;16.00;99.90
54930;DHT22;40833;53.238;6.576;2023-07-13T05:20:14;16.10;99.90
54930;DHT22;40833;53.238;6.576;2023-07-13T05:25:06;16.20;99.90
54930;DHT22;40833;53.238;6.576;2023-07-13T05:27:33;16.30;99.90
54930;DHT22;40833;53.238;6.576;2023-07-13T05:30:00;16.30;99.90
54930;DHT22;40833;53.238;6.576;2023-07-13T05:32:26;16.30;99.90
54930;DHT22;40833;53.238;6.576;2023-07-13T05:34:52;16.40;99.90
54930;DHT22;40833;53.238;6.576;2023-07-13T05:37:18;16.60;99.90
54930;DHT22;40833;53.238;6.576;2023-07-13T05:39:43;16.40;99.90
54930;DHT22;40833;53.238;6.576;2023-07-13T05:44:35;16.50;99.90
54930;DHT22;40833;53.238;6.576;2023-07-13T05:47:01;16.60;99.90
54930;DHT22;40833;53.238;6.576;2023-07-13T05:49:27;16.90;99.90
54930;DHT22;40833;53.238;6.576;2023-07-13T05:51:52;16.60;99.90
54930;DHT22;40833;53.238;6.576;2023-07-13T05:54:18;16.70;99.90
54930;DHT22;40833;53.238;6.576;2023-07-13T05:56:44;16.80;99.90
54930;DHT22;40833;53.238;6.576;2023-07-13T05:59:10;16.90;99.90
54930;DHT22;40833;53.238;6.576;2023-07-13T06:01:35;17.10;99.90
54930;DHT22;40833;53.238;6.576;2023-07-13T06:04:01;16.90;99.90
54930;DHT22;40833;53.238;6.576;2023-07-13T06:06:27;17.00;99.90
54930;DHT22;40833;53.238;6.576;2023-07-13T06:08:53;17.10;99.90
54930;DHT22;40833;53.238;6.576;2023-07-13T06:11:21;17.20;99.90
54930;DHT22;40833;53.238;6.576;2023-07-13T06:13:48;17.20;99.90
54930;DHT22;40833;53.238;6.576;2023-07-13T06:16:14;17.50;99.90
54930;DHT22;40833;53.238;6.576;2023-07-13T06:18:41;17.30;99.90
54930;DHT22;40833;53.238;6.576;2023-07-13T06:21:15;17.40;99.90
54930;DHT22;40833;53.238;6.576;2023-07-13T06:23:41;17.50;99.90
54930;DHT22;40833;53.238;6.576;2023-07-13T06:26:08;17.50;99.90
54930;DHT22;40833;53.238;6.576;2023-07-13T06:28:34;17.50;99.90
54930;DHT22;40833;53.238;6.576;2023-07-13T06:31:01;17.60;99.90
54930;DHT22;40833;53.238;6.576;2023-07-13T06:33:27;17.60;99.90
54930;DHT22;40833;53.238;6.576;2023-07-13T06:35:53;17.70;99.90
54930;DHT22;40833;53.238;6.576;2023-07-13T06:38:20;17.80;99.90
54930;DHT22;40833;53.238;6.576;2023-07-13T06:43:12;17.90;99.90
54930;DHT22;40833;53.238;6.576;2023-07-13T06:45:43;18.00;99.90
54930;DHT22;40833;53.238;6.576;2023-07-13T06:48:11;18.10;99.90
54930;DHT22;40833;53.238;6.576;2023-07-13T06:50:37;18.30;99.90
54930;DHT22;40833;53.238;6.576;2023-07-13T06:53:03;18.30;99.90
54930;DHT22;40833;53.238;6.576;2023-07-13T06:55:29;18.40;99.90
54930;DHT22;40833;53.238;6.576;2023-07-13T06:57:54;18.40;99.90
54930;DHT22;40833;53.238;6.576;2023-07-13T07:00:20;18.50;99.90
54930;DHT22;40833;53.238;6.576;2023-07-13T07:02:46;18.60;99.90
54930;DHT22;40833;53.238;6.576;2023-07-13T07:05:12;19.00;99.90
54930;DHT22;40833;53.238;6.576;2023-07-13T07:07:37;18.70;99.90
54930;DHT22;40833;53.238;6.576;2023-07-13T07:10:03;18.90;99.90
54930;DHT22;40833;53.238;6.576;2023-07-13T07:12:29;19.00;99.90
54930;DHT22;40833;53.238;6.576;2023-07-13T07:14:55;19.10;99.90
54930;DHT22;40833;53.238;6.576;2023-07-13T07:17:20;19.20;99.90
54930;DHT22;40833;53.238;6.576;2023-07-13T07:19:46;19.40;99.90
54930;DHT22;40833;53.238;6.576;2023-07-13T07:22:12;19.40;99.90
54930;DHT22;40833;53.238;6.576;2023-07-13T07:24:38;19.50;99.90
54930;DHT22;40833;53.238;6.576;2023-07-13T07:27:04;19.40;99.90
54930;DHT22;40833;53.238;6.576;2023-07-13T07:29:29;19.30;99.90
54930;DHT22;40833;53.238;6.576;2023-07-13T07:31:55;19.20;99.90
54930;DHT22;40833;53.238;6.576;2023-07-13T07:34:21;19.00;99.90
54930;DHT22;40833;53.238;6.576;2023-07-13T07:36:46;19.00;99.90
54930;DHT22;40833;53.238;6.576;2023-07-13T07:39:12;19.10;99.90
54930;DHT22;40833;53.238;6.576;2023-07-13T07:41:38;19.20;99.90
54930;DHT22;40833;53.238;6.576;2023-07-13T07:44:04;19.30;99.90
54930;DHT22;40833;53.238;6.576;2023-07-13T07:46:30;19.30;99.90
54930;DHT22;40833;53.238;6.576;2023-07-13T07:48:56;19.30;99.90
54930;DHT22;40833;53.238;6.576;2023-07-13T07:51:22;19.40;99.90
54930;DHT22;40833;53.238;6.576;2023-07-13T07:53:48;19.50;99.90
54930;DHT22;40833;53.238;6.576;2023-07-13T07:56:14;19.60;99.90
54930;DHT22;40833;53.238;6.576;2023-07-13T07:58:42;19.60;99.90
54930;DHT22;40833;53.238;6.576;2023-07-13T08:01:08;19.50;99.90
54930;DHT22;40833;53.238;6.576;2023-07-13T08:03:34;19.50;99.90
54930;DHT22;40833;53.238;6.576;2023-07-13T08:06:00;19.40;99.90
54930;DHT22;40833;53.238;6.576;2023-07-13T08:08:25;19.40;99.90
54930;DHT22;40833;53.238;6.576;2023-07-13T08:10:52;19.20;99.90
54930;DHT22;40833;53.238;6.576;2023-07-13T08:13:18;19.10;99.90
54930;DHT22;40833;53.238;6.576;2023-07-13T08:15:44;19.00;99.90
54930;DHT22;40833;53.238;6.576;2023-07-13T08:18:09;19.00;99.90
54930;DHT22;40833;53.238;6.576;2023-07-13T08:20:38;19.00;99.90
54930;DHT22;40833;53.238;6.576;2023-07-13T08:23:05;19.10;99.90
54930;DHT22;40833;53.238;6.576;2023-07-13T08:25:30;19.10;99.90
54930;DHT22;40833;53.238;6.576;2023-07-13T08:27:56;19.20;99.90
54930;DHT22;40833;53.238;6.576;2023-07-13T08:30:22;19.20;99.90
54930;DHT22;40833;53.238;6.576;2023-07-13T08:32:48;19.20;99.90
54930;DHT22;40833;53.238;6.576;2023-07-13T08:35:14;19.20;99.90
54930;DHT22;40833;53.238;6.576;2023-07-13T08:37:41;19.20;99.90
54930;DHT22;40833;53.238;6.576;2023-07-13T08:40:10;19.20;99.90
54930;DHT22;40833;53.238;6.576;2023-07-13T08:42:42;19.10;99.90
54930;DHT22;40833;53.238;6.576;2023-07-13T08:45:21;19.10;99.90
54930;DHT22;40833;53.238;6.576;2023-07-13T08:48:24;19.00;99.90
54930;DHT22;40833;53.238;6.576;2023-07-13T08:53:46;19.30;99.90
54930;DHT22;40833;53.238;6.576;2023-07-13T08:56:21;19.20;99.90
54930;DHT22;40833;53.238;6.576;2023-07-13T08:58:51;19.80;99.90
54930;DHT22;40833;53.238;6.576;2023-07-13T09:04:23;19.90;99.90
54930;DHT22;40833;53.238;6.576;2023-07-13T09:14:53;20.10;99.90
54930;DHT22;40833;53.238;6.576;2023-07-13T09:17:27;20.00;99.90
54930;DHT22;40833;53.238;6.576;2023-07-13T09:20:10;19.90;99.90
54930;DHT22;40833;53.238;6.576;2023-07-13T09:22:40;19.90;99.90
54930;DHT22;40833;53.238;6.576;2023-07-13T09:25:29;19.90;99.90
54930;DHT22;40833;53.238;6.576;2023-07-13T09:27:58;20.00;99.90
54930;DHT22;40833;53.238;6.576;2023-07-13T09:30:34;20.10;99.90
54930;DHT22;40833;53.238;6.576;2023-07-13T09:33:01;20.40;99.90
54930;DHT22;40833;53.238;6.576;2023-07-13T09:35:29;20.60;99.90
54930;DHT22;40833;53.238;6.576;2023-07-13T09:38:24;20.80;99.90
54930;DHT22;40833;53.238;6.576;2023-07-13T09:44:11;20.80;99.90
54930;DHT22;40833;53.238;6.576;2023-07-13T09:46:40;20.70;99.90
54930;DHT22;40833;53.238;6.576;2023-07-13T09:49:10;20.70;99.90
54930;DHT22;40833;53.238;6.576;2023-07-13T09:51:37;20.70;99.90
54930;DHT22;40833;53.238;6.576;2023-07-13T09:54:04;20.70;99.90
54930;DHT22;40833;53.238;6.576;2023-07-13T09:56:30;20.70;99.90
54930;DHT22;40833;53.238;6.576;2023-07-13T09:58:57;20.70;99.90
54930;DHT22;40833;53.238;6.576;2023-07-13T10:01:37;20.70;99.90
54930;DHT22;40833;53.238;6.576;2023-07-13T10:04:13;20.60;99.90
54930;DHT22;40833;53.238;6.576;2023-07-13T10:06:39;20.60;99.90
54930;DHT22;40833;53.238;6.576;2023-07-13T10:09:09;20.40;99.90
54930;DHT22;40833;53.238;6.576;2023-07-13T10:11:36;20.30;99.90
54930;DHT22;40833;53.238;6.576;2023-07-13T10:14:14;20.30;99.90
54930;DHT22;40833;53.238;6.576;2023-07-13T10:16:42;20.40;99.90
54930;DHT22;40833;53.238;6.576;2023-07-13T10:19:25;21.10;99.90
54930;DHT22;40833;53.238;6.576;2023-07-13T10:21:56;21.00;99.90
54930;DHT22;40833;53.238;6.576;2023-07-13T10:24:27;21.10;99.90
54930;DHT22;40833;53.238;6.576;2023-07-13T10:27:27;21.10;99.90
54930;DHT22;40833;53.238;6.576;2023-07-13T10:30:01;21.20;99.90
54930;DHT22;40833;53.238;6.576;2023-07-13T10:32:30;21.40;99.90
54930;DHT22;40833;53.238;6.576;2023-07-13T10:34:56;21.70;99.90
54930;DHT22;40833;53.238;6.576;2023-07-13T10:37:26;22.30;99.90
54930;DHT22;40833;53.238;6.576;2023-07-13T10:39:54;22.30;99.90
54930;DHT22;40833;53.238;6.576;2023-07-13T10:42:40;22.40;99.90
54930;DHT22;40833;53.238;6.576;2023-07-13T10:45:20;22.10;99.90
54930;DHT22;40833;53.238;6.576;2023-07-13T10:47:47;22.00;99.90
54930;DHT22;40833;53.238;6.576;2023-07-13T10:50:24;21.90;99.90
54930;DHT22;40833;53.238;6.576;2023-07-13T10:52:52;22.00;99.90
54930;DHT22;40833;53.238;6.576;2023-07-13T10:55:36;22.10;99.90
54930;DHT22;40833;53.238;6.576;2023-07-13T11:01:08;22.50;99.90
54930;DHT22;40833;53.238;6.576;2023-07-13T11:03:59;22.60;99.90
54930;DHT22;40833;53.238;6.576;2023-07-13T11:08:58;22.80;99.90
54930;DHT22;40833;53.238;6.576;2023-07-13T11:11:35;23.00;99.90
54930;DHT22;40833;53.238;6.576;2023-07-13T11:14:03;23.10;99.90
54930;DHT22;40833;53.238;6.576;2023-07-13T11:16:42;23.40;99.90
54930;DHT22;40833;53.238;6.576;2023-07-13T11:24:29;22.90;99.90
54930;DHT22;40833;53.238;6.576;2023-07-13T11:26:56;23.10;99.90
54930;DHT22;40833;53.238;6.576;2023-07-13T11:29:37;22.90;99.90
54930;DHT22;40833;53.238;6.576;2023-07-13T11:32:23;23.20;99.90
54930;DHT22;40833;53.238;6.576;2023-07-13T11:34:49;23.20;99.90
54930;DHT22;40833;53.238;6.576;2023-07-13T11:37:17;23.30;99.90
54930;DHT22;40833;53.238;6.576;2023-07-13T11:39:46;23.30;99.90
54930;DHT22;40833;53.238;6.576;2023-07-13T11:42:16;23.20;99.90
54930;DHT22;40833;53.238;6.576;2023-07-13T11:44:50;23.10;99.80
54930;DHT22;40833;53.238;6.576;2023-07-13T11:47:21;22.90;99.60
54930;DHT22;40833;53.238;6.576;2023-07-13T11:49:55;22.80;99.90
54930;DHT22;40833;53.238;6.576;2023-07-13T11:52:36;22.90;99.90
54930;DHT22;40833;53.238;6.576;2023-07-13T11:55:08;22.90;99.90
54930;DHT22;40833;53.238;6.576;2023-07-13T11:57:43;22.70;99.90
54930;DHT22;40833;53.238;6.576;2023-07-13T12:00:20;22.40;99.90
54930;DHT22;40833;53.238;6.576;2023-07-13T12:02:49;22.60;99.90
54930;DHT22;40833;53.238;6.576;2023-07-13T12:05:17;22.60;99.90
54930;DHT22;40833;53.238;6.576;2023-07-13T12:07:44;22.60;99.90
54930;DHT22;40833;53.238;6.576;2023-07-13T12:13:00;23.10;99.90
54930;DHT22;40833;53.238;6.576;2023-07-13T12:15:45;23.00;99.90
54930;DHT22;40833;53.238;6.576;2023-07-13T12:18:18;22.70;99.60
54930;DHT22;40833;53.238;6.576;2023-07-13T12:20:44;22.60;99.60
54930;DHT22;40833;53.238;6.576;2023-07-13T12:23:34;22.60;99.90
54930;DHT22;40833;53.238;6.576;2023-07-13T12:26:05;22.70;99.90
54930;DHT22;40833;53.238;6.576;2023-07-13T12:28:37;22.60;99.90
54930;DHT22;40833;53.238;6.576;2023-07-13T12:31:06;22.70;99.90
54930;DHT22;40833;53.238;6.576;2023-07-13T12:33:33;22.60;99.90
54930;DHT22;40833;53.238;6.576;2023-07-13T12:36:05;22.60;99.90
54930;DHT22;40833;53.238;6.576;2023-07-13T12:40:58;22.80;99.30
54930;DHT22;40833;53.238;6.576;2023-07-13T12:43:25;22.60;99.90
54930;DHT22;40833;53.238;6.576;2023-07-13T12:45:59;22.20;99.90
54930;DHT22;40833;53.238;6.576;2023-07-13T12:48:26;22.70;99.90
54930;DHT22;40833;53.238;6.576;2023-07-13T12:50:54;22.50;99.90
54930;DHT22;40833;53.238;6.576;2023-07-13T12:53:22;22.30;99.90
54930;DHT22;40833;53.238;6.576;2023-07-13T12:55:49;22.20;99.90
54930;DHT22;40833;53.238;6.576;2023-07-13T12:58:31;22.60;99.90
54930;DHT22;40833;53.238;6.576;2023-07-13T13:01:00;22.70;99.90
54930;DHT22;40833;53.238;6.576;2023-07-13T13:03:29;23.00;99.90
54930;DHT22;40833;53.238;6.576;2023-07-13T13:08:42;23.10;99.90
54930;DHT22;40833;53.238;6.576;2023-07-13T13:11:09;23.50;99.90
54930;DHT22;40833;53.238;6.576;2023-07-13T13:25:50;23.80;99.90
54930;DHT22;40833;53.238;6.576;2023-07-13T13:28:20;24.20;99.90
54930;DHT22;40833;53.238;6.576;2023-07-13T13:30:48;23.80;99.90
54930;DHT22;40833;53.238;6.576;2023-07-13T13:33:17;23.50;99.90
54930;DHT22;40833;53.238;6.576;2023-07-13T13:35:43;23.20;99.90
54930;DHT22;40833;53.238;6.576;2023-07-13T13:38:17;22.70;99.90
54930;DHT22;40833;53.238;6.576;2023-07-13T13:40:45;22.20;99.90
54930;DHT22;40833;53.238;6.576;2023-07-13T13:43:20;21.90;99.90
54930;DHT22;40833;53.238;6.576;2023-07-13T13:45:46;21.80;99.90
54930;DHT22;40833;53.238;6.576;2023-07-13T13:48:20;22.10;99.90
54930;DHT22;40833;53.238;6.576;2023-07-13T13:50:48;22.40;99.90
54930;DHT22;40833;53.238;6.576;2023-07-13T13:53:14;22.60;99.90
54930;DHT22;40833;53.238;6.576;2023-07-13T13:55:40;22.80;99.90
54930;DHT22;40833;53.238;6.576;2023-07-13T13:58:10;23.10;99.90
54930;DHT22;40833;53.238;6.576;2023-07-13T14:00:37;23.30;99.90
54930;DHT22;40833;53.238;6.576;2023-07-13T14:06:21;23.60;99.90
54930;DHT22;40833;53.238;6.576;2023-07-13T14:08:47;23.60;99.90
54930;DHT22;40833;53.238;6.576;2023-07-13T14:20:41;23.60;99.90
54930;DHT22;40833;53.238;6.576;2023-07-13T14:23:07;23.10;99.90
54930;DHT22;40833;53.238;6.576;2023-07-13T14:25:32;23.30;99.90
54930;DHT22;40833;53.238;6.576;2023-07-13T14:27:58;23.30;99.90
54930;DHT22;40833;53.238;6.576;2023-07-13T14:30:26;23.40;99.90
54930;DHT22;40833;53.238;6.576;2023-07-13T14:32:52;23.50;99.90
54930;DHT22;40833;53.238;6.576;2023-07-13T14:35:21;23.50;99.90
54930;DHT22;40833;53.238;6.576;2023-07-13T14:40:29;23.80;99.90
54930;DHT22;40833;53.238;6.576;2023-07-13T14:46:30;24.40;99.90
54930;DHT22;40833;53.238;6.576;2023-07-13T14:49:04;24.80;99.40
54930;DHT22;40833;53.238;6.576;2023-07-13T14:51:32;25.40;99.90
54930;DHT22;40833;53.238;6.576;2023-07-13T14:54:02;24.70;99.90
54930;DHT22;40833;53.238;6.576;2023-07-13T14:56:28;24.60;99.90
54930;DHT22;40833;53.238;6.576;2023-07-13T14:58:54;24.80;99.60
54930;DHT22;40833;53.238;6.576;2023-07-13T15:01:20;24.80;99.90
54930;DHT22;40833;53.238;6.576;2023-07-13T15:03:49;25.00;99.60
54930;DHT22;40833;53.238;6.576;2023-07-13T15:06:15;25.10;99.90
54930;DHT22;40833;53.238;6.576;2023-07-13T15:08:41;25.30;99.30
54930;DHT22;40833;53.238;6.576;2023-07-13T15:11:10;25.20;99.20
54930;DHT22;40833;53.238;6.576;2023-07-13T15:13:40;25.00;99.00
54930;DHT22;40833;53.238;6.576;2023-07-13T15:16:27;25.10;99.40
54930;DHT22;40833;53.238;6.576;2023-07-13T15:18:53;24.80;98.70
54930;DHT22;40833;53.238;6.576;2023-07-13T15:21:22;24.70;99.10
54930;DHT22;40833;53.238;6.576;2023-07-13T15:23:49;24.50;98.90
54930;DHT22;40833;53.238;6.576;2023-07-13T15:26:17;24.60;99.90
54930;DHT22;40833;53.238;6.576;2023-07-13T15:28:44;25.30;99.10
54930;DHT22;40833;53.238;6.576;2023-07-13T15:31:24;25.30;98.40
54930;DHT22;40833;53.238;6.576;2023-07-13T15:33:51;25.10;98.20
54930;DHT22;40833;53.238;6.576;2023-07-13T15:36:19;25.00;98.50
54930;DHT22;40833;53.238;6.576;2023-07-13T15:38:46;24.90;98.50
54930;DHT22;40833;53.238;6.576;2023-07-13T15:41:16;24.90;98.20
54930;DHT22;40833;53.238;6.576;2023-07-13T15:43:42;24.70;98.40
54930;DHT22;40833;53.238;6.576;2023-07-13T15:46:09;24.70;98.80
54930;DHT22;40833;53.238;6.576;2023-07-13T15:48:34;24.70;98.30
54930;DHT22;40833;53.238;6.576;2023-07-13T15:51:02;24.90;97.40
54930;DHT22;40833;53.238;6.576;2023-07-13T15:53:31;25.40;97.10
54930;DHT22;40833;53.238;6.576;2023-07-13T15:55:57;25.90;96.30
54930;DHT22;40833;53.238;6.576;2023-07-13T15:58:23;25.80;96.20
54930;DHT22;40833;53.238;6.576;2023-07-13T16:00:50;25.40;96.40
54930;DHT22;40833;53.238;6.576;2023-07-13T16:03:17;25.30;96.90
54930;DHT22;40833;53.238;6.576;2023-07-13T16:05:44;25.50;96.80
54930;DHT22;40833;53.238;6.576;2023-07-13T16:08:24;25.30;96.80
54930;DHT22;40833;53.238;6.576;2023-07-13T16:10:51;24.60;97.10
54930;DHT22;40833;53.238;6.576;2023-07-13T16:13:19;24.40;97.70
54930;DHT22;40833;53.238;6.576;2023-07-13T16:15:46;24.40;98.10
54930;DHT22;40833;53.238;6.576;2023-07-13T16:18:13;24.50;97.80
54930;DHT22;40833;53.238;6.576;2023-07-13T16:20:39;24.50;98.00
54930;DHT22;40833;53.238;6.576;2023-07-13T16:23:05;24.80;97.90
54930;DHT22;40833;53.238;6.576;2023-07-13T16:25:32;25.10;97.20
54930;DHT22;40833;53.238;6.576;2023-07-13T16:27:59;25.00;96.70
54930;DHT22;40833;53.238;6.576;2023-07-13T16:30:30;24.50;97.20
54930;DHT22;40833;53.238;6.576;2023-07-13T16:32:57;23.90;99.90
54930;DHT22;40833;53.238;6.576;2023-07-13T16:35:28;23.90;99.90
54930;DHT22;40833;53.238;6.576;2023-07-13T16:37:55;23.90;99.00
54930;DHT22;40833;53.238;6.576;2023-07-13T16:40:28;23.80;99.00
54930;DHT22;40833;53.238;6.576;2023-07-13T16:42:55;24.50;99.90
54930;DHT22;40833;53.238;6.576;2023-07-13T16:45:23;25.50;99.90
54930;DHT22;40833;53.238;6.576;2023-07-13T16:47:53;25.50;98.40
54930;DHT22;40833;53.238;6.576;2023-07-13T16:50:22;26.00;96.70
54930;DHT22;40833;53.238;6.576;2023-07-13T16:52:49;26.60;99.90
54930;DHT22;40833;53.238;6.576;2023-07-13T16:55:16;26.60;96.50
54930;DHT22;40833;53.238;6.576;2023-07-13T16:57:45;27.20;99.90
54930;DHT22;40833;53.238;6.576;2023-07-13T17:00:23;27.10;95.50
54930;DHT22;40833;53.238;6.576;2023-07-13T17:02:56;27.00;95.40
54930;DHT22;40833;53.238;6.576;2023-07-13T17:05:39;27.20;95.80
54930;DHT22;40833;53.238;6.576;2023-07-13T17:08:13;27.10;95.10
54930;DHT22;40833;53.238;6.576;2023-07-13T17:10:40;26.90;95.80
54930;DHT22;40833;53.238;6.576;2023-07-13T17:13:10;26.60;96.10
54930;DHT22;40833;53.238;6.576;2023-07-13T17:15:36;26.50;96.00
54930;DHT22;40833;53.238;6.576;2023-07-13T17:18:04;26.40;95.90
54930;DHT22;40833;53.238;6.576;2023-07-13T17:20:33;26.20;96.00
54930;DHT22;40833;53.238;6.576;2023-07-13T17:23:12;26.10;96.10